AirNav   Get $300 off a Bose A20
 
 1266 users online  

KNYG Quantico Marine Corps Airfield / Turner Field
Quantico, Virginia, USA

GOING TO QUANTICO?


FAA INFORMATION EFFECTIVE 23 MAY 2019

Location

FAA Identifier: NYG
Lat/Long: 38-30-13.0480N / 077-18-18.1140W
38-30.217467N / 077-18.301900W
38.5036244 / -77.3050317
(estimated)
Elevation: 11 ft. / 3.4 m (surveyed)
Variation: 09W (1985)
From city: 1 mile S of QUANTICO, VA
Time zone: UTC -4 (UTC -5 during Standard Time)
Zip code: 22134

Airport Operations

Airport use: Private use. Permission required prior to landing
Activation date: 01/1944
Control tower: yes
ARTCC: WASHINGTON CENTER
FSS: LEESBURG FLIGHT SERVICE STATION
NOTAMs facility: DCA (NOTAM-D service available)
Attendance: MON-THU 1300-0200Z++, ALL FRI 1300-2200Z++, ALL/SAT/SUN/HOLS/CLSD
Segmented circle: no
Lights: AVBL ONLY DURING HRS OF OPERATION.
Beacon: white-white-green (lighted military airport)
Operates sunset to sunrise.

Airport Communications

ATIS: 263.15
QUANTICO GROUND: 121.75 340.2 [1300-0200Z++ MON-THU; 1300-2200Z++ FRI; OPR SAT, SUN, AND HOL BY NOTAM ONLY.]
QUANTICO TOWER: 118.6 360.2 [1300-0200Z++ MON-THU; 1300-2200Z++ FRI; OPR SAT, SUN, AND HOL BY NOTAM ONLY.]
POTOMAC APPROACH: 128.525 ;(WHEN NYG ATCT CLSD)
POTOMAC DEPARTURE: 128.525 ;(WHEN NYG ATCT CLSD)
ARR: 127.05 290.375
BASE OPS: 355.3
EMERG: 121.5 243.0
HYPER STAR: 133.0
PMSV METRO: 355.3
RADAR: 134.1 374.9
RADAR/P: 306.7
TIKEE STAR: 120.45
TRSTN STAR: 126.75
WX AWOS-3 at RMN (9 nm SW): 126.325 (540-657-8283)
WX AWOS-3 at EZF (16 nm SW): 128.125 (540-372-6794)
WX AWOS-3PT at HEF (16 nm NW): PHONE 703-361-6160
WX AWOS-3 at HWY (20 nm W): 120.350 (540-788-4078)
  • 1300-0200Z++ MON-THU; 1300-2200Z++ FRI; OPR SAT, SUN, AND HOL BY NOTAM ONLY.

Nearby radio navigation aids

VOR radial/distance  VOR name  Freq  Var
BRVr022/10.3BROOKE VORTAC114.5009W
DCAr220/24.8WASHINGTON VOR/DME111.0009W
AMLr172/26.9ARMEL VOR/DME113.5008W
ADWr238/27.5ANDREWS VORTAC113.1010W
CSNr113/27.6CASANOVA VORTAC116.3006W
OTTr255/28.9NOTTINGHAM VORTAC113.7010W

 
NDB name  Hdg/Dist  Freq  Var  ID
DAVEE233/13.222309WDAA -.. .- .-
SHANNON036/15.823710WEZF . --.. ..-.
OXONN231/20.433211WDCA -.. -.-. .-
GEORGETOWN207/26.932309WGTN --. - -.
NAILR094/28.335110WMSQ -- ... --.-

Airport Services

Fuel available: A1+ JET-B+
Bottled oxygen: NONE
Bulk oxygen: HIGH

Runway Information

Runway 2/20

Dimensions: 4250 x 200 ft. / 1295 x 61 m
Surface: PEM
RY 02 GRVD FIRST 1300 FT; RWY 20 GRVD FIRST1550 FT.
Weight bearing capacity: 
PCN 69 /R/B/W/T
Runway edge lights: high intensity
RUNWAY 2  RUNWAY 20
Latitude: 38-29.878650N38-30.556283N
Longitude: 077-18.414183W077-18.189617W
Elevation: 9.4 ft.10.3 ft.
Traffic pattern: leftleft
Runway heading: 024 magnetic, 015 true204 magnetic, 195 true
Markings: precision, in fair conditionprecision, in fair condition
Visual slope indicator: 4-light PAPI on left (3.00 degrees glide path)
PAPI AND PAR RPIS NOT COINCIDENTAL.
Runway end identifier lights: yesyes
Touchdown point: yes, no lightsyes, no lights

Airport Ownership and Management from official FAA records

Ownership: U.S. Navy
Owner: US NAVY
OCEANOGRAPHIC OFC-CODE 3142
WASHINGTON, DC 20373
Manager: COMMANDING OFFICER
MARINE CORPS AIR STATION
QUANTICO, VA 22134
Phone 703-784-2084
ARPT MANAGER 703-784-1449.

Additional Remarks

FUEL: A++; LTD SUP. EXP NO MORE THAN 10K OVER PPR.
TRAN ALERT: NO TRAN MAINT AVBL. REQUIRE QUALIFIED CREW MEMBER TO ASSIST IN COLD REFUELING.
BIRD HAZ VCNTY RY 02-20 SR-SS. HVY MIGRATORY BIRD ACT OCT-FEB.
NS ABTMT: THE AREA IN AND ARND THE QUANTICO CLASS D AIRSPACE IS NOISE SENSITIVE. COPTER TRANSIT QUANTICO CLASS D AIRSPACE AT OR ABV 1000 FT AGL.
MISC:CAT II CRASH/FIRE RESCUE SVC.
REMARKS: MCAF QUANTICO HAS NOT PROVISIONS FOR SPACE A PASSENGERS. SPACE A PASSENGER CAN NOT BE ON-LOADED OR OFF-LOADED DUE TO SECURITY ISSUES.
MISC: MCAF QUANTICO AND R-6608 LIE WITH THE WASHINGTON ADIZ. PILOTS MUST ADHERE TO ADIZ RPRTG PROCS IN BOTH THESE AREAS. TWY A LTD TO R/W DALGT VFR ONLY.
CUSTOMS/AGRICULTURE/IMMIGRATION: CSTMS/AG/IMG - AVAILABLE WITH 72 HR PN BY PPR ONLY.
RSTD: ALL TRAN ACFT 24 HR PPR; BASE OPS DSN 278-2085/1459, OR C703-784-2085/1459. AFTER 2200Z++ AND ON WEEKEND CALL DSN 378-0920, C703-432-0920 OR C703-675-3623 FOR PPR. MIL AIRCRAFT AND LIGHT CIVIL AIRCRAFT OPR AT OTHER THAN PUBL HR SR-SS ONLY.
CAUTION: NO MANDATORY RWY VFR HOLD POSITION SIGNS CO-LOCATED W/MARKINGS ON TWYS A, B, AND D. NO VFR HOLD MARKINGS CO-LOCATED W/MANDATORY VFR HOLD SIGNS ON TWY C. RWY 02 OVRN 100 FT. RWY 20 NO OVRN.
FOR CD WHEN NYG ATCT/APCH ARE CLSD CTC POTOMAC APCH AT 866-709-4993.
RWY: NO 180 DEG TURNS ON RWY ASP.
MISC: 180 DEG TURNS ONLY ON CONC EOR.
MISC: NO STAGGERED ACFT DEVS FR RCL.

Instrument Procedures

NOTE: All procedures below are presented as PDF files. If you need a reader for these files, you should download the free Adobe Reader.

NOT FOR NAVIGATION. Please procure official charts for flight.
FAA instrument procedures published for use from 23 May 2019 at 0901Z to 20 June 2019 at 0900Z.

 
STARs - Standard Terminal Arrivals
HYPER SEVEN (RNAV)   2 pages: [1] [2] (381KB)
HYPER SEVEN (RNAV), CONT.2   download (249KB)
PRIVO TWO   2 pages: [1] [2] (265KB)
TIKEE THREE (RNAV)   download (213KB)
 
IAPs - Instrument Approach Procedures
RNAV (GPS) RWY 02   download (123KB)
TACAN RWY 02   download (121KB)
Radar Approach Procedures available   download (71KB)
NOTE: Special Take-Off Minimums/Departure Procedures apply   download (215KB)

Other nearby airports with instrument procedures:

KRMN - Stafford Regional Airport (9 nm SW)
2W5 - Maryland Airport (12 nm NE)
KDAA - Davison Army Airfield (14 nm NE)
KEZF - Shannon Airport (16 nm SW)
KHEF - Manassas Regional Airport/Harry P. Davis Field (16 nm NW)
KHWY - Warrenton-Fauquier Airport (20 nm W)
 
Loc | Ops | Rwys | IFR | FBO | Links
Com | Nav | Svcs | Stats | Notes
Area around KNYG (Quantico Marine Corps Airfield / Turner Field)
 
Road maps at: MapQuest Bing Google
 
Aerial photo
WARNING: Photo may not be current or correct
Aerial photo of KNYG (Quantico Marine Corps Airfield / Turner Field)
Jeff Long, SkyFocal.com
Photo taken 06-Jan-2012
looking north.

Do you have a better or more recent aerial photo of Quantico Marine Corps Airfield / Turner Field that you would like to share? If so, please send us your photo.

 
Sectional chart

 
Airport distance calculator
Flying to Quantico Marine Corps Airfield / Turner Field? Find the distance to fly.

From to KNYG

Sunrise and sunset
Times for 23-May-2019
 Local
(UTC-4)
 Zulu
(UTC)
Morning civil twilight05:2209:22
Sunrise05:5309:53
Sunset20:1900:19
Evening civil twilight20:5000:50

Current date and time
Zulu (UTC)  23-May-2019 13:33:20
Local (UTC-4)  23-May-2019 09:33:20
 
METAR
KNYG 231256Z 20010KT 10SM BKN200 21/15 A3018 RMK AO2 SLP219 T02060150
KRMN 
9nm SW 
231315Z AUTO 20005KT 10SM CLR 22/16 A3021 RMK AO2 T02160156
KDAA 
14nm NE 
231256Z AUTO 17007KT 10SM CLR 20/13 A3017 RMK AO2 SLP220 T02000134 $
KEZF 
16nm SW 
231315Z AUTO 20005KT 10SM CLR 22/16 A3017 RMK AO2 T02160159
KHEF 
16nm NW 
231256Z 19006KT 10SM CLR 20/14 A3016 RMK AO2 SLP224 T02000144 PNO $
KHWY 
20nm W 
231315Z AUTO 21005KT 10SM CLR 21/14 A3015 RMK AO2 T02120142
TAF
KNYG 2309/2409 22009KT 9999 SKC QNH3017INS BECMG 2311/2313 21010KT 9999 FEW060 SCT080 QNH3007INS FM231800 21010G22KT 9999 SCT030 BKN060 QNH2995INS TEMPO 2303/2409 27007KT 9999 SCT030 BKN050 T30/2320Z T20/2409Z
KDAA 
14nm NE 
230900Z 2309/2415 18009KT 9999 SCT060 QNH3012INS BECMG 2314/2315 20012G18KT 9999 FEW030 BKN060 QNH2995INS BECMG 2318/2319 20009KT 9000 -SHRA OVC040 QNH2988INS TEMPO 2320/2401 20020G25KT 8000 -TSRA OVC020CB BECMG 2401/2402 29009KT 9999 NSW BKN030 QNH2988INS BECMG 2408/2409 33012G18KT 9999 SCT040 QNH2990INS TX29/2322Z TN13/2309Z
NOTAMs
Click for the latest NOTAMs
NOTAMs are issued by the DoD/FAA and will open in a separate window not controlled by AirNav.

 

 
 

Would you like to see your business listed on this page?

 If your business provides an interesting product or service to pilots, flight crews, aircraft, or users of the Quantico Marine Corps Airfield / Turner Field, you should consider listing it here.  To start the listing process, click on the button below
 
Add a business
 

Other Pages about Quantico Marine Corps Airfield / Turner Field

Update a link
 
Copyright © AirNav, LLC. All rights reserved. Privacy Policy  Contact